Time;durP1;ratioP1;P1;durP2;ratioP2;P2;SDS_P1;SDS_P2;PMS_P1;PMS_P2;Temp;Humidity;BMP_temperature;BMP_pressure;BME280_temperature;BME280_humidity;BME280_pressure;Samples;Min_cycle;Max_cycle;Signal;HPM_P1;HPM_P2
2022/04/09 00:00:09;;;;;;;9.60;3.60;;;11.50;99.90;;;;;;5290896;28;20379;-74
2022/04/09 00:02:40;;;;;;;8.63;3.25;;;11.40;99.90;;;;;;5291043;28;20026;-75
2022/04/09 00:05:12;;;;;;;8.80;4.05;;;11.30;99.90;;;;;;5290708;28;20036;-70
2022/04/09 00:07:43;;;;;;;7.43;3.40;;;10.70;99.90;;;;;;5290859;28;20482;-70
2022/04/09 00:10:18;;;;;;;11.25;4.55;;;10.80;99.90;;;;;;5290482;28;20019;-71
2022/04/09 00:12:57;;;;;;;10.90;3.50;;;10.70;99.90;;;;;;5290631;28;20022;-71
2022/04/09 00:15:32;;;;;;;11.02;4.03;;;10.80;99.90;;;;;;5290074;28;20043;-71
2022/04/09 00:18:08;;;;;;;8.20;3.72;;;10.50;99.90;;;;;;5290624;28;20038;-71
2022/04/09 00:20:46;;;;;;;9.40;3.95;;;10.60;99.90;;;;;;5290537;28;20038;-71
2022/04/09 00:23:18;;;;;;;7.50;3.92;;;10.50;99.90;;;;;;5290660;28;20016;-75
2022/04/09 00:25:50;;;;;;;5.88;2.90;;;10.60;99.90;;;;;;5290700;28;20028;-75
2022/04/09 00:28:20;;;;;;;12.80;3.58;;;10.90;99.90;;;;;;5290452;28;20051;-75
2022/04/09 00:30:51;;;;;;;7.78;3.58;;;10.40;99.90;;;;;;5290360;28;20055;-75
2022/04/09 00:33:22;;;;;;;8.15;3.22;;;10.50;99.90;;;;;;5290540;28;20031;-75
2022/04/09 00:35:53;;;;;;;6.95;3.65;;;10.60;99.90;;;;;;5290450;28;20107;-71
2022/04/09 00:38:25;;;;;;;7.20;3.03;;;10.20;99.90;;;;;;5290245;28;20027;-75
2022/04/09 00:40:56;;;;;;;7.20;3.38;;;10.30;99.90;;;;;;5290346;28;20036;-71
2022/04/09 00:43:27;;;;;;;10.32;3.13;;;10.20;99.90;;;;;;5290022;28;20016;-75
2022/04/09 00:45:58;;;;;;;5.90;3.15;;;10.20;99.90;;;;;;5290102;28;20085;-74
2022/04/09 00:48:29;;;;;;;8.40;3.20;;;10.20;99.90;;;;;;5290227;28;20092;-75
2022/04/09 00:50:59;;;;;;;10.30;4.38;;;11.10;99.90;;;;;;5289946;28;20032;-75
2022/04/09 00:53:36;;;;;;;6.40;3.38;;;11.10;99.90;;;;;;5290139;28;20482;-74
2022/04/09 00:56:13;;;;;;;9.60;3.75;;;10.60;99.90;;;;;;5289890;28;20512;-70
2022/04/09 00:58:55;;;;;;;8.32;3.28;;;10.40;99.90;;;;;;5290107;28;20502;-70
2022/04/09 01:01:28;;;;;;;9.07;3.28;;;10.40;99.90;;;;;;5290013;28;20035;-71
2022/04/09 01:03:59;;;;;;;8.10;3.70;;;10.30;99.90;;;;;;5289998;28;20465;-71
2022/04/09 01:06:33;;;;;;;11.82;3.42;;;10.50;99.90;;;;;;5271804;28;20024;-75
2022/04/09 01:09:05;;;;;;;9.93;4.13;;;10.10;99.90;;;;;;5290054;28;20030;-75
2022/04/09 01:11:40;;;;;;;10.27;4.20;;;9.70;99.90;;;;;;5289940;28;20041;-73
2022/04/09 01:14:12;;;;;;;8.40;4.22;;;9.70;99.90;;;;;;5289933;28;20057;-76
2022/04/09 01:16:42;;;;;;;9.55;4.10;;;9.70;99.90;;;;;;5289575;28;20372;-75
2022/04/09 01:19:13;;;;;;;8.68;4.07;;;9.60;99.90;;;;;;5289786;28;20035;-75
2022/04/09 01:21:47;;;;;;;7.95;3.70;;;9.80;99.90;;;;;;5292377;28;20379;-75
2022/04/09 01:24:18;;;;;;;12.43;3.63;;;9.70;99.90;;;;;;5294056;28;20515;-70
2022/04/09 01:26:48;;;;;;;9.13;3.60;;;9.50;99.90;;;;;;5294133;28;20107;-75
2022/04/09 01:29:20;;;;;;;7.55;3.45;;;9.60;99.90;;;;;;5293894;28;20019;-75
2022/04/09 01:31:51;;;;;;;7.53;3.28;;;9.60;99.90;;;;;;5293939;28;20367;-75
2022/04/09 01:34:22;;;;;;;5.50;3.25;;;9.70;99.90;;;;;;5293864;28;20020;-75
2022/04/09 01:36:53;;;;;;;9.20;3.58;;;9.70;99.90;;;;;;5293980;28;20024;-75
2022/04/09 01:39:23;;;;;;;8.27;3.58;;;9.50;99.90;;;;;;5293984;28;20035;-74
2022/04/09 01:41:54;;;;;;;10.60;4.05;;;9.60;99.90;;;;;;5275540;28;20024;-75
2022/04/09 01:44:25;;;;;;;6.40;3.38;;;9.60;99.90;;;;;;5293512;28;20156;-75
2022/04/09 01:46:56;;;;;;;6.32;3.60;;;9.70;99.90;;;;;;5293503;28;20463;-73
2022/04/09 01:49:26;;;;;;;6.65;3.95;;;9.70;99.90;;;;;;5293717;28;20456;-75
2022/04/09 01:51:57;;;;;;;8.02;4.10;;;9.50;99.90;;;;;;5293509;28;20035;-75
2022/04/09 01:54:28;;;;;;;10.80;4.57;;;9.40;99.90;;;;;;5293264;28;20031;-75
2022/04/09 01:56:59;;;;;;;9.63;4.53;;;9.70;99.90;;;;;;5293349;28;20035;-75
2022/04/09 01:59:30;;;;;;;11.27;4.63;;;9.60;99.90;;;;;;5293311;28;20031;-74
2022/04/09 02:02:00;;;;;;;9.10;4.70;;;9.50;99.90;;;;;;5293443;28;20019;-75
2022/04/09 02:04:31;;;;;;;12.00;4.90;;;9.50;99.90;;;;;;5293194;28;20024;-75
2022/04/09 02:07:02;;;;;;;8.80;5.18;;;9.50;99.90;;;;;;5293269;28;20478;-74
2022/04/09 02:09:33;;;;;;;9.50;4.55;;;9.40;99.90;;;;;;5293158;28;20374;-75
2022/04/09 02:12:04;;;;;;;11.77;5.68;;;9.60;99.90;;;;;;5293347;28;20425;-75
2022/04/09 02:14:35;;;;;;;10.90;5.22;;;9.40;99.90;;;;;;5292962;28;20031;-74
2022/04/09 02:17:06;;;;;;;11.90;4.88;;;9.40;99.90;;;;;;5292913;28;20104;-76
2022/04/09 02:19:38;;;;;;;11.40;5.20;;;9.40;99.90;;;;;;5292869;28;20069;-75
2022/04/09 02:22:09;;;;;;;10.77;4.70;;;9.30;99.90;;;;;;5292839;28;20432;-70
2022/04/09 02:24:40;;;;;;;11.77;5.10;;;9.40;99.90;;;;;;5292539;28;20054;-74
2022/04/09 02:27:10;;;;;;;9.57;4.72;;;9.40;99.90;;;;;;5292949;28;20055;-75
2022/04/09 02:29:41;;;;;;;10.60;5.35;;;9.30;99.90;;;;;;5292769;28;20020;-75
2022/04/09 02:32:13;;;;;;;14.55;7.00;;;8.90;99.90;;;;;;5292456;28;20028;-75
2022/04/09 02:34:43;;;;;;;16.13;6.55;;;8.70;99.90;;;;;;5292705;28;20072;-75
2022/04/09 02:37:14;;;;;;;17.60;7.80;;;8.90;99.90;;;;;;5274486;28;20031;-75
2022/04/09 02:39:45;;;;;;;12.30;6.40;;;8.70;99.90;;;;;;5274278;28;20074;-75
2022/04/09 02:42:16;;;;;;;14.65;6.03;;;8.40;99.90;;;;;;5292588;28;20073;-75
2022/04/09 02:44:47;;;;;;;11.98;5.88;;;8.50;99.90;;;;;;5292451;28;20019;-75
2022/04/09 02:47:18;;;;;;;10.68;5.50;;;8.50;99.90;;;;;;5292478;28;20028;-70
2022/04/09 02:49:49;;;;;;;14.18;6.18;;;8.20;99.90;;;;;;5292594;28;20024;-75
2022/04/09 02:52:20;;;;;;;12.13;5.80;;;8.00;99.90;;;;;;5292608;28;20336;-71
2022/04/09 02:54:51;;;;;;;10.32;5.75;;;8.00;99.90;;;;;;5292471;28;20031;-75
2022/04/09 02:57:21;;;;;;;12.20;4.95;;;7.80;99.90;;;;;;5273957;28;20471;-75
2022/04/09 02:59:52;;;;;;;9.85;5.43;;;7.80;99.90;;;;;;5292451;28;20479;-70
2022/04/09 03:02:23;;;;;;;11.25;5.50;;;7.70;99.90;;;;;;5292160;28;20023;-70
2022/04/09 03:04:55;;;;;;;10.52;5.80;;;7.90;99.90;;;;;;5273915;28;20490;-73
2022/04/09 03:07:26;;;;;;;11.43;5.80;;;7.80;99.90;;;;;;5292105;28;20016;-75
2022/04/09 03:09:56;;;;;;;13.25;5.72;;;7.40;99.90;;;;;;5291952;28;20028;-73
2022/04/09 03:12:28;;;;;;;12.07;6.10;;;7.40;99.90;;;;;;5292031;28;20020;-75
2022/04/09 03:14:58;;;;;;;15.07;5.80;;;7.50;99.90;;;;;;5291592;28;20031;-75
2022/04/09 03:17:29;;;;;;;11.15;6.10;;;7.60;99.90;;;;;;5291901;28;20087;-75
2022/04/09 03:20:00;;;;;;;10.43;5.97;;;7.50;99.90;;;;;;5291757;28;20036;-75
2022/04/09 03:22:31;;;;;;;15.80;6.40;;;7.40;99.90;;;;;;5291832;28;20054;-75
2022/04/09 03:25:03;;;;;;;13.13;6.18;;;7.00;99.90;;;;;;5291559;28;20028;-75
2022/04/09 03:27:33;;;;;;;14.07;7.60;;;7.30;99.90;;;;;;5291655;28;20027;-70
2022/04/09 03:30:06;;;;;;;12.55;6.50;;;7.30;99.90;;;;;;5291636;28;20015;-74
2022/04/09 03:32:38;;;;;;;11.82;6.38;;;7.30;99.90;;;;;;5291778;28;20095;-70
2022/04/09 03:35:11;;;;;;;14.88;6.30;;;7.10;99.90;;;;;;5291412;28;20035;-75
2022/04/09 03:37:42;;;;;;;13.93;6.53;;;7.30;99.90;;;;;;5291274;28;20051;-75
2022/04/09 03:40:13;;;;;;;12.27;6.30;;;7.20;99.90;;;;;;5291471;28;20035;-75
2022/04/09 03:42:44;;;;;;;11.65;6.30;;;7.10;99.90;;;;;;5291046;28;20023;-75
2022/04/09 03:45:15;;;;;;;14.65;6.95;;;7.20;99.90;;;;;;5290702;28;20717;-75
2022/04/09 03:47:46;;;;;;;11.80;7.25;;;7.00;99.90;;;;;;5291173;28;20020;-70
2022/04/09 03:50:17;;;;;;;12.65;6.60;;;7.00;99.90;;;;;;5291299;28;20019;-71
2022/04/09 03:52:51;;;;;;;13.60;7.28;;;7.00;99.90;;;;;;5291251;28;20015;-75
2022/04/09 03:55:22;;;;;;;13.05;7.55;;;7.00;99.90;;;;;;5291028;28;20483;-75
2022/04/09 03:57:52;;;;;;;15.75;7.13;;;7.20;99.90;;;;;;5291150;28;20059;-75
2022/04/09 04:00:24;;;;;;;16.30;8.48;;;7.10;99.90;;;;;;5290923;28;20023;-75
2022/04/09 04:02:57;;;;;;;13.25;7.10;;;7.20;99.90;;;;;;5290828;28;20028;-74
2022/04/09 04:05:27;;;;;;;16.92;8.38;;;7.30;99.90;;;;;;5290936;28;20026;-71
2022/04/09 04:07:58;;;;;;;15.80;7.82;;;7.30;99.90;;;;;;5290770;28;20020;-71
2022/04/09 04:10:29;;;;;;;16.83;8.70;;;7.50;99.90;;;;;;5290802;28;20028;-75
2022/04/09 04:13:00;;;;;;;17.30;9.80;;;7.40;99.90;;;;;;5290724;28;20030;-70
2022/04/09 04:15:32;;;;;;;20.02;8.68;;;7.30;99.90;;;;;;5290456;28;20057;-75
2022/04/09 04:18:03;;;;;;;14.63;8.65;;;7.40;99.90;;;;;;5290645;28;20035;-75
2022/04/09 04:20:34;;;;;;;15.77;9.15;;;7.60;99.90;;;;;;5290572;28;20051;-75
2022/04/09 04:23:05;;;;;;;18.13;9.18;;;7.40;99.90;;;;;;5290516;28;20404;-75
2022/04/09 04:25:36;;;;;;;21.10;9.95;;;7.80;99.90;;;;;;5290470;28;20063;-75
2022/04/09 04:28:07;;;;;;;27.25;11.73;;;8.20;99.90;;;;;;5290488;28;20028;-75
2022/04/09 04:30:37;;;;;;;19.88;9.25;;;8.30;99.90;;;;;;5290468;28;20027;-75
2022/04/09 04:33:09;;;;;;;24.48;11.18;;;8.40;99.90;;;;;;5290297;28;20032;-75
2022/04/09 04:35:39;;;;;;;22.15;10.70;;;8.60;99.90;;;;;;5290362;28;20048;-71
2022/04/09 04:38:11;;;;;;;21.33;10.25;;;8.80;99.90;;;;;;5290335;28;20047;-71
2022/04/09 04:40:42;;;;;;;19.90;10.23;;;9.10;99.90;;;;;;5290201;28;20089;-76
2022/04/09 04:43:13;;;;;;;23.48;9.50;;;9.20;99.90;;;;;;5290084;28;20440;-75
2022/04/09 04:45:44;;;;;;;24.60;10.70;;;9.40;99.90;;;;;;5290295;28;20034;-76
2022/04/09 04:48:15;;;;;;;21.00;9.95;;;9.50;99.90;;;;;;5290183;28;20511;-75
2022/04/09 04:50:46;;;;;;;20.63;9.13;;;9.80;99.90;;;;;;5290350;28;20048;-74
2022/04/09 04:53:17;;;;;;;20.65;10.48;;;9.90;99.90;;;;;;5289936;28;20028;-75
2022/04/09 04:55:48;;;;;;;31.85;16.05;;;10.20;99.90;;;;;;5289533;28;20432;-75
2022/04/09 04:58:20;;;;;;;34.22;16.85;;;10.70;99.90;;;;;;5290061;28;20019;-75
2022/04/09 05:00:50;;;;;;;34.83;18.08;;;10.90;99.90;;;;;;5290025;28;20093;-75
2022/04/09 05:03:21;;;;;;;37.13;17.98;;;11.10;99.90;;;;;;5290100;28;20409;-73
2022/04/09 05:05:52;;;;;;;37.50;18.02;;;11.30;99.90;;;;;;5290132;28;20035;-75
2022/04/09 05:08:23;;;;;;;43.65;21.40;;;11.40;99.90;;;;;;5289997;28;20379;-75
2022/04/09 05:10:54;;;;;;;39.90;18.20;;;11.70;99.90;;;;;;5290072;28;20022;-74
2022/04/09 05:13:24;;;;;;;16.50;7.05;;;12.00;99.90;;;;;;5289485;28;20027;-75
2022/04/09 05:15:55;;;;;;;7.53;2.90;;;13.10;99.90;;;;;;5289853;28;20047;-76
2022/04/09 05:18:27;;;;;;;6.47;2.20;;;14.00;99.90;;;;;;5289877;28;20111;-70
2022/04/09 05:20:58;;;;;;;4.95;2.20;;;14.60;99.90;;;;;;5287432;28;20902;-75
2022/04/09 05:23:29;;;;;;;8.23;2.22;;;14.80;99.90;;;;;;5269490;28;20352;-76
2022/04/09 05:25:59;;;;;;;8.05;2.10;;;15.00;99.90;;;;;;5250672;28;20028;-75
2022/04/09 05:28:30;;;;;;;4.20;2.05;;;15.20;99.90;;;;;;5268953;28;20448;-74
2022/04/09 05:31:02;;;;;;;4.90;1.88;;;15.40;99.90;;;;;;5268750;28;20028;-70
2022/04/09 05:33:33;;;;;;;21.83;4.03;;;15.30;99.90;;;;;;5268726;28;20103;-71
2022/04/09 05:36:05;;;;;;;13.63;2.95;;;15.60;99.90;;;;;;5268723;28;20100;-76
2022/04/09 05:38:36;;;;;;;7.68;2.65;;;15.60;99.90;;;;;;5268605;28;20030;-76
2022/04/09 05:41:07;;;;;;;6.45;2.80;;;15.90;99.90;;;;;;5268765;28;20019;-76
2022/04/09 05:43:39;;;;;;;7.13;3.20;;;16.10;99.90;;;;;;5268426;28;20041;-74
2022/04/09 05:46:10;;;;;;;8.38;3.00;;;16.20;99.90;;;;;;5268705;28;20111;-76
2022/04/09 05:48:40;;;;;;;5.47;2.60;;;16.40;99.90;;;;;;5268692;28;20099;-76
2022/04/09 05:51:11;;;;;;;10.90;3.50;;;16.40;99.90;;;;;;5268565;28;20020;-76
2022/04/09 05:53:42;;;;;;;6.82;2.33;;;16.30;99.90;;;;;;5268474;28;20036;-78
2022/04/09 05:56:13;;;;;;;5.90;2.00;;;16.70;99.90;;;;;;5268595;28;20048;-76
2022/04/09 05:58:44;;;;;;;5.45;2.28;;;16.60;99.90;;;;;;5268274;28;20020;-72
2022/04/09 06:01:15;;;;;;;6.10;2.60;;;16.90;99.90;;;;;;5268479;28;20426;-71
2022/04/09 06:03:45;;;;;;;7.57;2.50;;;17.00;99.90;;;;;;5268198;28;20024;-70
2022/04/09 06:06:16;;;;;;;4.35;2.20;;;17.20;99.90;;;;;;5268313;28;20028;-74
2022/04/09 06:08:48;;;;;;;4.03;2.20;;;17.30;99.90;;;;;;5272165;28;20027;-75
2022/04/09 06:11:24;;;;;;;5.70;2.10;;;17.30;99.90;;;;;;5277359;28;20051;-78
2022/04/09 06:13:56;;;;;;;4.97;2.00;;;17.40;99.90;;;;;;5268215;28;21192;-76
2022/04/09 06:16:27;;;;;;;6.57;2.70;;;17.40;99.90;;;;;;5288058;27;20523;-77
2022/04/09 06:19:01;;;;;;;5.32;2.00;;;17.60;99.90;;;;;;5287835;28;20023;-76
2022/04/09 06:21:33;;;;;;;5.63;1.75;;;17.80;99.90;;;;;;5288038;27;20034;-77
2022/04/09 06:24:05;;;;;;;5.20;2.20;;;17.80;99.90;;;;;;5287653;28;20036;-76
2022/04/09 06:26:39;;;;;;;9.57;3.17;;;17.90;99.90;;;;;;5288336;27;20562;-73
2022/04/09 06:29:11;;;;;;;5.85;2.08;;;17.80;99.90;;;;;;5287799;28;20411;-72
2022/04/09 06:31:47;;;;;;;5.18;1.73;;;17.90;99.90;;;;;;5287976;28;20431;-72
2022/04/09 06:34:18;;;;;;;4.15;1.80;;;18.00;99.90;;;;;;5287683;28;20047;-72
2022/04/09 06:36:56;;;;;;;4.55;1.60;;;18.00;99.90;;;;;;5288148;27;20462;-73
2022/04/09 06:39:30;;;;;;;7.78;2.90;;;18.20;99.90;;;;;;5287413;28;20418;-73
2022/04/09 06:42:04;;;;;;;6.70;2.10;;;18.10;99.90;;;;;;5285485;28;20032;-73
2022/04/09 06:44:35;;;;;;;3.67;1.85;;;18.50;99.90;;;;;;5287811;28;20042;-72
2022/04/09 06:47:12;;;;;;;6.40;2.30;;;18.40;99.90;;;;;;5284490;27;20899;-72
2022/04/09 06:49:43;;;;;;;7.53;1.90;;;18.10;99.90;;;;;;5286655;28;20544;-72
2022/04/09 06:52:18;;;;;;;6.55;2.28;;;18.30;99.90;;;;;;5288174;27;20031;-72
2022/04/09 06:54:50;;;;;;;5.47;2.15;;;18.50;99.90;;;;;;5287686;27;20081;-73
2022/04/09 06:57:22;;;;;;;5.38;1.75;;;18.70;99.90;;;;;;5287208;27;20099;-72
2022/04/09 06:59:57;;;;;;;4.38;1.95;;;18.20;99.90;;;;;;5287045;28;20059;-72
2022/04/09 07:02:28;;;;;;;9.50;1.70;;;18.60;99.90;;;;;;5287504;27;20023;-72
2022/04/09 07:05:02;;;;;;;7.80;2.30;;;18.60;99.90;;;;;;5286745;28;20022;-74
2022/04/09 07:07:34;;;;;;;6.95;3.65;;;18.80;99.90;;;;;;5286086;27;20032;-74
2022/04/09 07:10:10;;;;;;;8.23;2.05;;;18.90;99.90;;;;;;5285278;28;20716;-73
2022/04/09 07:12:45;;;;;;;5.88;1.65;;;19.20;99.90;;;;;;5287755;28;20027;-73
2022/04/09 07:15:17;;;;;;;5.25;1.27;;;19.40;99.20;;;;;;5285965;28;20416;-72
2022/04/09 07:17:49;;;;;;;10.43;1.88;;;19.10;99.90;;;;;;5286395;28;20103;-73
2022/04/09 07:20:21;;;;;;;8.65;1.90;;;19.00;95.70;;;;;;5286579;28;20150;-73
2022/04/09 07:22:53;;;;;;;6.05;1.50;;;19.40;95.60;;;;;;5286576;27;20047;-73
2022/04/09 07:25:25;;;;;;;6.05;1.88;;;19.40;95.30;;;;;;5286043;28;20015;-72
2022/04/09 07:27:56;;;;;;;4.80;1.58;;;19.50;92.60;;;;;;5286025;28;20431;-72
2022/04/09 07:30:27;;;;;;;5.10;1.58;;;19.40;96.10;;;;;;5268075;28;20454;-72
2022/04/09 07:32:58;;;;;;;3.92;1.52;;;19.40;91.70;;;;;;5286424;28;20635;-76
2022/04/09 07:35:31;;;;;;;5.20;1.63;;;19.80;90.10;;;;;;5286617;28;20016;-74
2022/04/09 07:38:04;;;;;;;6.68;1.65;;;19.90;89.80;;;;;;5286481;28;20063;-74
2022/04/09 07:40:36;;;;;;;5.80;2.20;;;20.30;89.60;;;;;;5286750;28;20110;-74
2022/04/09 07:43:11;;;;;;;5.85;1.50;;;20.00;85.20;;;;;;5286367;27;20576;-76
2022/04/09 07:45:42;;;;;;;3.75;1.50;;;19.80;83.80;;;;;;5286165;28;20061;-76
2022/04/09 07:48:14;;;;;;;5.75;1.55;;;19.80;82.80;;;;;;5286268;28;20031;-76
2022/04/09 07:50:46;;;;;;;3.08;1.30;;;19.90;86.20;;;;;;5285803;28;20498;-75
2022/04/09 07:53:17;;;;;;;5.60;1.30;;;20.30;83.00;;;;;;5286350;28;20028;-76
2022/04/09 07:55:50;;;;;;;6.40;1.38;;;20.30;84.20;;;;;;5286416;27;20069;-76
2022/04/09 07:58:22;;;;;;;3.45;1.20;;;20.00;81.00;;;;;;5289283;28;20015;-76
2022/04/09 08:00:53;;;;;;;6.88;1.83;;;20.10;81.20;;;;;;5290405;28;20046;-72
2022/04/09 08:03:24;;;;;;;4.18;1.30;;;20.10;81.40;;;;;;5290026;28;20019;-72
2022/04/09 08:05:54;;;;;;;6.30;1.65;;;20.30;81.60;;;;;;5290783;28;20028;-75
2022/04/09 08:08:25;;;;;;;6.50;1.50;;;20.30;79.40;;;;;;5290070;28;20052;-71
2022/04/09 08:10:56;;;;;;;8.27;1.63;;;20.20;77.70;;;;;;5290882;28;20541;-73
2022/04/09 08:13:27;;;;;;;4.15;1.52;;;20.10;79.00;;;;;;5290617;28;20027;-76
2022/04/09 08:15:58;;;;;;;5.38;1.80;;;20.70;79.80;;;;;;5290583;28;20093;-71
2022/04/09 08:18:28;;;;;;;26.63;2.40;;;21.00;79.00;;;;;;5290634;28;20034;-76
2022/04/09 08:20:59;;;;;;;4.35;1.80;;;21.30;76.50;;;;;;5290613;28;20093;-72
2022/04/09 08:23:31;;;;;;;7.32;2.03;;;21.00;74.20;;;;;;5290434;28;20028;-73
2022/04/09 08:26:03;;;;;;;5.38;1.98;;;21.10;74.40;;;;;;5290633;28;20042;-76
2022/04/09 08:28:36;;;;;;;3.25;1.42;;;20.90;71.10;;;;;;5290567;28;20371;-76
2022/04/09 08:31:07;;;;;;;4.45;1.95;;;21.10;72.00;;;;;;5290197;28;20534;-72
2022/04/09 08:33:40;;;;;;;3.17;1.35;;;21.40;73.30;;;;;;5290465;28;20027;-74
2022/04/09 08:36:11;;;;;;;6.70;1.65;;;21.30;71.30;;;;;;5290506;28;20055;-76
2022/04/09 08:38:42;;;;;;;13.07;1.95;;;21.60;69.80;;;;;;5290185;28;20058;-76
2022/04/09 08:41:15;;;;;;;7.43;1.60;;;21.50;70.30;;;;;;5290323;28;20032;-76
2022/04/09 08:43:46;;;;;;;8.27;2.05;;;22.20;72.90;;;;;;5290085;28;20088;-75
2022/04/09 08:46:17;;;;;;;5.22;1.50;;;21.90;69.90;;;;;;5290347;28;20391;-76
2022/04/09 08:48:50;;;;;;;6.35;1.63;;;21.70;70.00;;;;;;5290147;28;20058;-73
2022/04/09 08:51:21;;;;;;;4.35;1.55;;;22.00;70.00;;;;;;5289923;28;20024;-73
2022/04/09 08:53:52;;;;;;;5.82;1.83;;;21.60;70.00;;;;;;5287855;28;20020;-73
2022/04/09 08:56:24;;;;;;;4.80;1.70;;;22.20;69.80;;;;;;5287195;28;20038;-74
2022/04/09 08:58:58;;;;;;;4.20;1.60;;;22.70;69.40;;;;;;5290037;28;20054;-74
2022/04/09 09:01:30;;;;;;;6.25;1.48;;;22.40;65.80;;;;;;5289800;28;20047;-73
2022/04/09 09:04:01;;;;;;;2.88;1.27;;;22.30;65.50;;;;;;5289871;28;20011;-73
2022/04/09 09:06:39;;;;;;;4.88;1.52;;;21.80;63.30;;;;;;5289621;28;20031;-75
2022/04/09 09:09:29;;;;;;;6.10;1.40;;;21.80;63.00;;;;;;5289779;28;20031;-72
2022/04/09 09:12:02;;;;;;;4.82;1.48;;;22.20;62.30;;;;;;5289692;28;20538;-73
2022/04/09 09:14:34;;;;;;;4.40;1.30;;;22.50;63.30;;;;;;5289411;28;20040;-76
2022/04/09 09:17:05;;;;;;;4.38;1.40;;;22.70;63.00;;;;;;5289653;28;20055;-73
2022/04/09 09:19:50;;;;;;;3.17;1.25;;;22.30;61.40;;;;;;5289717;28;20032;-75
2022/04/09 09:22:21;;;;;;;7.78;1.80;;;22.70;60.90;;;;;;5289616;28;20494;-72
2022/04/09 09:25:05;;;;;;;8.18;1.70;;;23.20;63.80;;;;;;5289491;28;20035;-72
2022/04/09 09:27:37;;;;;;;3.35;1.15;;;22.90;60.80;;;;;;5289817;28;20026;-72
2022/04/09 09:30:13;;;;;;;8.02;1.67;;;22.50;60.60;;;;;;5289421;28;20023;-70
2022/04/09 09:32:44;;;;;;;3.20;1.20;;;22.40;60.20;;;;;;5271449;28;20020;-73
2022/04/09 09:35:14;;;;;;;4.85;1.30;;;22.80;59.70;;;;;;5289642;28;20084;-72
2022/04/09 09:37:45;;;;;;;3.70;1.30;;;22.90;59.40;;;;;;5289456;28;20531;-72
2022/04/09 09:40:32;;;;;;;5.03;1.67;;;23.20;59.20;;;;;;5289772;28;20111;-73
2022/04/09 09:43:20;;;;;;;5.18;1.30;;;23.10;58.50;;;;;;5292392;28;20062;-75
2022/04/09 09:45:53;;;;;;;5.82;1.20;;;23.10;57.70;;;;;;5289829;28;20054;-69
2022/04/09 09:48:29;;;;;;;3.83;1.40;;;22.90;57.80;;;;;;5284372;28;20104;-76
2022/04/09 09:51:00;;;;;;;2.72;1.30;;;23.20;59.30;;;;;;5293573;28;20024;-72
2022/04/09 09:53:32;;;;;;;3.05;1.38;;;22.70;58.00;;;;;;5293250;28;20039;-72
2022/04/09 09:56:04;;;;;;;3.55;1.48;;;23.00;59.80;;;;;;5293399;28;20438;-72
2022/04/09 09:58:36;;;;;;;6.18;1.70;;;24.00;61.30;;;;;;5293246;28;20549;-71
2022/04/09 10:01:07;;;;;;;4.82;1.50;;;23.40;58.10;;;;;;5293167;28;20367;-73
2022/04/09 10:03:38;;;;;;;3.42;1.25;;;23.50;58.50;;;;;;5293150;28;20028;-76
2022/04/09 10:06:09;;;;;;;4.25;1.90;;;23.10;59.20;;;;;;5293082;28;20474;-75
2022/04/09 10:08:40;;;;;;;7.18;1.50;;;23.40;60.00;;;;;;5292989;28;20027;-75
2022/04/09 10:11:11;;;;;;;5.00;1.40;;;22.90;59.20;;;;;;5292982;28;20046;-73
2022/04/09 10:13:47;;;;;;;8.95;1.98;;;22.90;58.10;;;;;;5292896;28;20110;-73
2022/04/09 10:16:21;;;;;;;2.53;0.98;;;23.10;58.80;;;;;;5292796;28;20073;-70
2022/04/09 10:18:56;;;;;;;3.15;1.25;;;22.90;58.80;;;;;;5292747;28;20378;-72
2022/04/09 10:21:29;;;;;;;2.47;1.13;;;23.20;58.30;;;;;;5292715;28;20032;-71
2022/04/09 10:24:05;;;;;;;4.38;1.50;;;22.80;57.60;;;;;;5292565;28;20027;-74
2022/04/09 10:26:36;;;;;;;4.20;1.30;;;23.70;58.20;;;;;;5292979;28;20019;-75
2022/04/09 10:29:08;;;;;;;3.17;1.30;;;23.50;57.40;;;;;;5292729;28;20096;-72
2022/04/09 10:31:41;;;;;;;4.70;1.63;;;23.70;58.00;;;;;;5292686;28;20114;-71
2022/04/09 10:34:12;;;;;;;6.43;1.63;;;23.50;58.00;;;;;;5292832;28;20028;-75
2022/04/09 10:36:45;;;;;;;4.57;1.60;;;23.30;59.20;;;;;;5292632;28;20178;-75
2022/04/09 10:39:39;;;;;;;6.43;1.50;;;23.70;58.30;;;;;;5292615;28;20054;-76
2022/04/09 10:42:11;;;;;;;8.55;1.98;;;23.40;58.80;;;;;;5292630;28;20372;-76
2022/04/09 10:44:44;;;;;;;7.45;1.77;;;23.50;58.60;;;;;;5292492;28;20120;-75
2022/04/09 10:47:16;;;;;;;4.65;1.70;;;23.90;58.60;;;;;;5274137;28;20058;-73
2022/04/09 10:50:02;;;;;;;5.38;1.52;;;23.30;58.60;;;;;;5292474;28;20024;-69
2022/04/09 10:52:33;;;;;;;4.32;1.30;;;24.00;57.20;;;;;;5273902;28;20024;-72
2022/04/09 10:55:10;;;;;;;4.03;1.70;;;23.70;56.50;;;;;;5274129;28;20070;-75
2022/04/09 10:57:43;;;;;;;5.57;1.80;;;23.80;57.10;;;;;;5292324;28;20447;-72
2022/04/09 11:00:23;;;;;;;4.85;1.77;;;24.00;57.30;;;;;;5292245;28;20042;-75
2022/04/09 11:03:03;;;;;;;;;;;24.50;56.40;;;;;;5292796;28;20028;-71
2022/04/09 11:05:34;;;;;;;4.72;1.20;;;24.80;55.90;;;;;;5273913;28;19908;-74
2022/04/09 11:08:10;;;;;;;6.20;1.50;;;24.20;57.00;;;;;;5292116;28;20027;-74
2022/04/09 11:10:44;;;;;;;4.70;1.60;;;24.20;57.50;;;;;;5291953;28;20038;-72
2022/04/09 11:13:15;;;;;;;7.70;1.92;;;24.00;57.00;;;;;;5291901;28;20019;-71
2022/04/09 11:15:55;;;;;;;10.02;1.70;;;24.30;56.90;;;;;;5289755;28;20475;-74
2022/04/09 11:18:30;;;;;;;4.65;1.55;;;24.00;56.30;;;;;;5265921;28;20032;-72
2022/04/09 11:21:14;;;;;;;4.60;1.50;;;23.60;56.10;;;;;;5270483;28;20131;-72
2022/04/09 11:24:04;;;;;;;5.05;1.33;;;24.10;56.00;;;;;;5270460;28;20046;-72
2022/04/09 11:26:35;;;;;;;6.05;2.05;;;24.40;56.00;;;;;;5270582;28;20066;-73
2022/04/09 11:29:12;;;;;;;4.88;1.42;;;24.30;56.20;;;;;;5270409;28;20028;-74
2022/04/09 11:31:49;;;;;;;6.75;1.52;;;24.00;56.00;;;;;;5270350;28;20024;-72
2022/04/09 11:34:19;;;;;;;4.47;1.63;;;24.20;55.60;;;;;;5270515;28;20031;-75
2022/04/09 11:36:52;;;;;;;3.58;1.35;;;24.30;54.50;;;;;;5270464;28;20028;-71
2022/04/09 11:39:22;;;;;;;7.15;1.38;;;24.30;55.00;;;;;;5270297;28;20032;-75
2022/04/09 11:41:54;;;;;;;9.00;1.30;;;24.20;55.20;;;;;;5270263;28;20046;-71
2022/04/09 11:44:29;;;;;;;2.67;1.38;;;24.30;55.70;;;;;;5252118;28;20043;-71
2022/04/09 11:47:14;;;;;;;5.88;1.65;;;24.00;54.70;;;;;;5270275;28;20036;-72
2022/04/09 11:49:50;;;;;;;4.88;1.33;;;24.30;54.30;;;;;;5269934;28;20018;-69
2022/04/09 11:52:28;;;;;;;3.38;1.50;;;24.20;55.40;;;;;;5270165;28;20028;-75
2022/04/09 11:55:01;;;;;;;6.20;1.60;;;24.60;54.80;;;;;;5269928;28;20024;-74
2022/04/09 11:57:33;;;;;;;4.47;1.25;;;24.70;54.20;;;;;;5270213;28;20031;-71
2022/04/09 12:00:06;;;;;;;5.93;1.50;;;24.80;54.60;;;;;;5269790;28;20499;-75
2022/04/09 12:02:36;;;;;;;6.80;1.80;;;24.20;55.20;;;;;;5269918;28;20432;-72
2022/04/09 12:05:12;;;;;;;6.78;1.60;;;25.00;55.00;;;;;;5251136;28;20055;-70
2022/04/09 12:07:44;;;;;;;6.35;1.40;;;24.60;54.00;;;;;;5269682;28;20035;-71
2022/04/09 12:10:26;;;;;;;4.35;1.38;;;24.70;54.80;;;;;;5269816;28;20009;-71
2022/04/09 12:12:59;;;;;;;5.35;1.90;;;24.70;53.60;;;;;;5269461;28;20024;-72
2022/04/09 12:15:35;;;;;;;5.03;2.10;;;24.90;54.80;;;;;;5269309;28;20044;-75
2022/04/09 12:18:23;;;;;;;5.47;1.30;;;24.60;54.60;;;;;;5269499;28;20065;-74
2022/04/09 12:20:55;;;;;;;6.65;1.50;;;24.40;53.60;;;;;;5269534;28;20123;-73
2022/04/09 12:23:33;;;;;;;4.95;1.30;;;24.50;54.30;;;;;;5269419;28;20119;-73
2022/04/09 12:26:24;;;;;;;3.35;1.45;;;24.50;53.50;;;;;;5269477;28;20118;-74
2022/04/09 12:29:09;;;;;;;4.00;1.50;;;25.30;54.00;;;;;;5269367;28;20020;-73
2022/04/09 12:31:41;;;;;;;5.30;1.52;;;25.00;54.00;;;;;;5269323;28;20039;-74
2022/04/09 12:34:12;;;;;;;6.95;1.60;;;24.80;54.30;;;;;;5269229;28;20028;-71
2022/04/09 12:37:05;;;;;;;3.92;1.52;;;25.20;53.00;;;;;;5269376;28;20055;-71
2022/04/09 12:39:37;;;;;;;4.35;1.40;;;24.50;55.10;;;;;;5269195;28;20024;-71
2022/04/09 12:42:08;;;;;;;2.97;1.38;;;24.60;54.20;;;;;;5251068;28;20035;-72
2022/04/09 12:44:39;;;;;;;19.42;2.35;;;24.90;54.30;;;;;;5269169;28;20476;-75
2022/04/09 12:47:10;;;;;;;3.65;1.42;;;24.30;53.20;;;;;;5269111;28;20128;-71
2022/04/09 12:49:41;;;;;;;3.20;1.45;;;25.00;55.20;;;;;;5268953;28;20050;-71
2022/04/09 12:52:12;;;;;;;6.03;1.80;;;24.10;53.80;;;;;;5268960;28;20107;-74
2022/04/09 12:54:43;;;;;;;4.50;1.70;;;24.60;54.40;;;;;;5269059;28;20059;-72
2022/04/09 12:57:14;;;;;;;2.47;1.38;;;24.90;53.20;;;;;;5269362;28;20017;-72
2022/04/09 12:59:46;;;;;;;2.55;1.27;;;25.60;53.10;;;;;;5268790;28;20039;-72
2022/04/09 13:02:17;;;;;;;5.85;1.48;;;25.30;52.60;;;;;;5250903;28;20042;-71
2022/04/09 13:04:48;;;;;;;4.15;1.33;;;25.00;53.60;;;;;;5268925;28;20066;-68
2022/04/09 13:07:19;;;;;;;3.38;1.50;;;24.80;53.10;;;;;;5269053;28;20077;-71
2022/04/09 13:09:49;;;;;;;4.82;2.10;;;24.80;53.10;;;;;;5268930;28;20026;-71
2022/04/09 13:12:20;;;;;;;7.05;1.58;;;25.00;53.30;;;;;;5268863;28;20070;-71